sensor_id;sensor_type;location;lat;lon;timestamp;P1;durP1;ratioP1;P2;durP2;ratioP2
65751;SDS011;52486;51.098;13.770;2023-03-03T00:02:07;3.50;;;2.55;;
65751;SDS011;52486;51.098;13.770;2023-03-03T00:04:33;2.65;;;2.38;;
65751;SDS011;52486;51.098;13.770;2023-03-03T00:07:00;3.00;;;2.50;;
65751;SDS011;52486;51.098;13.770;2023-03-03T00:09:26;5.13;;;3.00;;
65751;SDS011;52486;51.098;13.770;2023-03-03T00:11:55;3.28;;;2.78;;
65751;SDS011;52486;51.098;13.770;2023-03-03T00:16:48;5.28;;;3.00;;
65751;SDS011;52486;51.098;13.770;2023-03-03T00:19:16;5.10;;;3.10;;
65751;SDS011;52486;51.098;13.770;2023-03-03T00:21:47;5.13;;;3.17;;
65751;SDS011;52486;51.098;13.770;2023-03-03T00:26:40;4.22;;;2.75;;
65751;SDS011;52486;51.098;13.770;2023-03-03T00:31:52;3.78;;;2.95;;
65751;SDS011;52486;51.098;13.770;2023-03-03T00:34:26;4.05;;;2.88;;
65751;SDS011;52486;51.098;13.770;2023-03-03T00:36:55;3.78;;;2.75;;
65751;SDS011;52486;51.098;13.770;2023-03-03T00:39:43;4.00;;;2.92;;
65751;SDS011;52486;51.098;13.770;2023-03-03T00:42:09;2.53;;;2.20;;
65751;SDS011;52486;51.098;13.770;2023-03-03T00:44:38;2.63;;;2.42;;
65751;SDS011;52486;51.098;13.770;2023-03-03T00:47:22;3.75;;;2.88;;
65751;SDS011;52486;51.098;13.770;2023-03-03T00:49:52;3.80;;;3.00;;
65751;SDS011;52486;51.098;13.770;2023-03-03T00:52:19;4.32;;;2.80;;
65751;SDS011;52486;51.098;13.770;2023-03-03T00:54:45;2.92;;;2.60;;
65751;SDS011;52486;51.098;13.770;2023-03-03T00:57:12;3.78;;;2.63;;
65751;SDS011;52486;51.098;13.770;2023-03-03T00:59:38;3.85;;;2.95;;
65751;SDS011;52486;51.098;13.770;2023-03-03T01:02:04;3.58;;;2.92;;
65751;SDS011;52486;51.098;13.770;2023-03-03T01:04:30;3.20;;;2.78;;
65751;SDS011;52486;51.098;13.770;2023-03-03T01:06:57;3.25;;;2.60;;
65751;SDS011;52486;51.098;13.770;2023-03-03T01:09:23;3.33;;;2.60;;
65751;SDS011;52486;51.098;13.770;2023-03-03T01:11:49;4.15;;;2.60;;
65751;SDS011;52486;51.098;13.770;2023-03-03T01:14:16;3.95;;;3.00;;
65751;SDS011;52486;51.098;13.770;2023-03-03T01:16:42;3.30;;;2.67;;
65751;SDS011;52486;51.098;13.770;2023-03-03T01:19:08;3.50;;;2.70;;
65751;SDS011;52486;51.098;13.770;2023-03-03T01:21:35;3.35;;;2.80;;
65751;SDS011;52486;51.098;13.770;2023-03-03T01:24:01;3.22;;;2.75;;
65751;SDS011;52486;51.098;13.770;2023-03-03T01:26:27;3.85;;;2.47;;
65751;SDS011;52486;51.098;13.770;2023-03-03T01:28:53;4.18;;;2.80;;
65751;SDS011;52486;51.098;13.770;2023-03-03T01:31:19;3.67;;;2.50;;
65751;SDS011;52486;51.098;13.770;2023-03-03T01:33:45;3.45;;;2.70;;
65751;SDS011;52486;51.098;13.770;2023-03-03T01:36:11;3.10;;;2.70;;
65751;SDS011;52486;51.098;13.770;2023-03-03T01:38:37;4.32;;;2.90;;
65751;SDS011;52486;51.098;13.770;2023-03-03T01:41:04;3.47;;;2.70;;
65751;SDS011;52486;51.098;13.770;2023-03-03T01:43:31;4.25;;;2.60;;
65751;SDS011;52486;51.098;13.770;2023-03-03T01:48:37;2.47;;;2.28;;
65751;SDS011;52486;51.098;13.770;2023-03-03T01:51:24;2.92;;;2.63;;
65751;SDS011;52486;51.098;13.770;2023-03-03T01:53:55;2.88;;;2.60;;
65751;SDS011;52486;51.098;13.770;2023-03-03T01:56:22;3.30;;;2.60;;
65751;SDS011;52486;51.098;13.770;2023-03-03T01:58:52;3.80;;;2.60;;
65751;SDS011;52486;51.098;13.770;2023-03-03T02:01:23;3.22;;;2.65;;
65751;SDS011;52486;51.098;13.770;2023-03-03T02:03:50;2.75;;;2.55;;
65751;SDS011;52486;51.098;13.770;2023-03-03T02:06:18;3.05;;;2.75;;
65751;SDS011;52486;51.098;13.770;2023-03-03T02:11:30;4.05;;;2.95;;
65751;SDS011;52486;51.098;13.770;2023-03-03T02:13:57;5.05;;;2.88;;
65751;SDS011;52486;51.098;13.770;2023-03-03T02:16:23;2.63;;;2.42;;
65751;SDS011;52486;51.098;13.770;2023-03-03T02:18:50;3.38;;;2.63;;
65751;SDS011;52486;51.098;13.770;2023-03-03T02:21:20;3.78;;;2.78;;
65751;SDS011;52486;51.098;13.770;2023-03-03T02:26:31;4.13;;;2.75;;
65751;SDS011;52486;51.098;13.770;2023-03-03T02:28:58;3.05;;;2.40;;
65751;SDS011;52486;51.098;13.770;2023-03-03T02:31:26;3.70;;;2.85;;
65751;SDS011;52486;51.098;13.770;2023-03-03T02:33:53;3.53;;;2.55;;
65751;SDS011;52486;51.098;13.770;2023-03-03T02:44:23;4.88;;;2.65;;
65751;SDS011;52486;51.098;13.770;2023-03-03T02:46:24;4.50;;;2.90;;
65751;SDS011;52486;51.098;13.770;2023-03-03T02:48:50;3.30;;;2.78;;
65751;SDS011;52486;51.098;13.770;2023-03-03T02:51:16;3.22;;;2.92;;
65751;SDS011;52486;51.098;13.770;2023-03-03T02:53:42;3.50;;;2.97;;
65751;SDS011;52486;51.098;13.770;2023-03-03T02:56:08;3.83;;;2.97;;
65751;SDS011;52486;51.098;13.770;2023-03-03T02:58:35;3.85;;;2.95;;
65751;SDS011;52486;51.098;13.770;2023-03-03T03:01:01;4.07;;;3.08;;
65751;SDS011;52486;51.098;13.770;2023-03-03T03:03:27;3.63;;;2.80;;
65751;SDS011;52486;51.098;13.770;2023-03-03T03:05:54;3.65;;;2.63;;
65751;SDS011;52486;51.098;13.770;2023-03-03T03:08:20;2.70;;;2.50;;
65751;SDS011;52486;51.098;13.770;2023-03-03T03:10:46;3.95;;;2.80;;
65751;SDS011;52486;51.098;13.770;2023-03-03T03:13:12;4.75;;;2.88;;
65751;SDS011;52486;51.098;13.770;2023-03-03T03:15:38;4.57;;;3.10;;
65751;SDS011;52486;51.098;13.770;2023-03-03T03:18:04;2.92;;;2.50;;
65751;SDS011;52486;51.098;13.770;2023-03-03T03:20:34;3.42;;;3.00;;
65751;SDS011;52486;51.098;13.770;2023-03-03T03:23:00;4.50;;;3.03;;
65751;SDS011;52486;51.098;13.770;2023-03-03T03:25:26;3.55;;;2.50;;
65751;SDS011;52486;51.098;13.770;2023-03-03T03:27:52;3.75;;;2.58;;
65751;SDS011;52486;51.098;13.770;2023-03-03T03:30:19;3.10;;;2.67;;
65751;SDS011;52486;51.098;13.770;2023-03-03T03:32:45;4.03;;;2.60;;
65751;SDS011;52486;51.098;13.770;2023-03-03T03:35:11;3.78;;;2.72;;
65751;SDS011;52486;51.098;13.770;2023-03-03T03:37:37;3.63;;;2.80;;
65751;SDS011;52486;51.098;13.770;2023-03-03T03:40:04;3.08;;;2.42;;
65751;SDS011;52486;51.098;13.770;2023-03-03T03:42:30;3.00;;;2.60;;
65751;SDS011;52486;51.098;13.770;2023-03-03T03:44:57;4.60;;;2.78;;
65751;SDS011;52486;51.098;13.770;2023-03-03T03:47:23;4.20;;;2.58;;
65751;SDS011;52486;51.098;13.770;2023-03-03T03:49:49;3.70;;;2.90;;
65751;SDS011;52486;51.098;13.770;2023-03-03T03:52:15;2.58;;;2.38;;
65751;SDS011;52486;51.098;13.770;2023-03-03T03:54:41;3.20;;;2.90;;
65751;SDS011;52486;51.098;13.770;2023-03-03T03:57:07;3.88;;;2.85;;
65751;SDS011;52486;51.098;13.770;2023-03-03T03:59:33;3.10;;;2.25;;
65751;SDS011;52486;51.098;13.770;2023-03-03T04:01:59;2.70;;;2.50;;
65751;SDS011;52486;51.098;13.770;2023-03-03T04:04:26;3.25;;;2.70;;
65751;SDS011;52486;51.098;13.770;2023-03-03T04:06:52;4.32;;;2.72;;
65751;SDS011;52486;51.098;13.770;2023-03-03T04:09:18;3.20;;;2.65;;
65751;SDS011;52486;51.098;13.770;2023-03-03T04:11:44;3.55;;;2.92;;
65751;SDS011;52486;51.098;13.770;2023-03-03T04:14:10;3.35;;;2.83;;
65751;SDS011;52486;51.098;13.770;2023-03-03T04:16:36;3.20;;;2.55;;
65751;SDS011;52486;51.098;13.770;2023-03-03T04:19:02;3.70;;;2.55;;
65751;SDS011;52486;51.098;13.770;2023-03-03T04:21:28;3.42;;;2.90;;
65751;SDS011;52486;51.098;13.770;2023-03-03T04:23:54;3.30;;;3.00;;
65751;SDS011;52486;51.098;13.770;2023-03-03T04:26:21;2.95;;;2.40;;
65751;SDS011;52486;51.098;13.770;2023-03-03T04:28:47;3.20;;;2.58;;
65751;SDS011;52486;51.098;13.770;2023-03-03T04:31:13;4.43;;;2.92;;
65751;SDS011;52486;51.098;13.770;2023-03-03T04:33:39;3.20;;;2.50;;
65751;SDS011;52486;51.098;13.770;2023-03-03T04:36:05;3.03;;;2.70;;
65751;SDS011;52486;51.098;13.770;2023-03-03T04:38:32;3.35;;;2.67;;
65751;SDS011;52486;51.098;13.770;2023-03-03T04:40:58;2.90;;;2.45;;
65751;SDS011;52486;51.098;13.770;2023-03-03T04:43:24;2.90;;;2.25;;
65751;SDS011;52486;51.098;13.770;2023-03-03T04:45:50;2.78;;;2.17;;
65751;SDS011;52486;51.098;13.770;2023-03-03T04:48:16;3.35;;;2.60;;
65751;SDS011;52486;51.098;13.770;2023-03-03T04:50:43;3.13;;;2.50;;
65751;SDS011;52486;51.098;13.770;2023-03-03T04:53:09;2.83;;;2.40;;
65751;SDS011;52486;51.098;13.770;2023-03-03T04:55:35;2.70;;;2.50;;
65751;SDS011;52486;51.098;13.770;2023-03-03T04:58:02;4.60;;;2.50;;
65751;SDS011;52486;51.098;13.770;2023-03-03T05:00:28;3.15;;;2.53;;
65751;SDS011;52486;51.098;13.770;2023-03-03T05:02:54;4.88;;;2.72;;
65751;SDS011;52486;51.098;13.770;2023-03-03T05:05:21;2.53;;;2.33;;
65751;SDS011;52486;51.098;13.770;2023-03-03T05:07:47;3.10;;;2.60;;
65751;SDS011;52486;51.098;13.770;2023-03-03T05:10:13;2.92;;;2.50;;
65751;SDS011;52486;51.098;13.770;2023-03-03T05:12:39;3.22;;;2.63;;
65751;SDS011;52486;51.098;13.770;2023-03-03T05:15:05;3.33;;;2.30;;
65751;SDS011;52486;51.098;13.770;2023-03-03T05:17:32;3.58;;;2.63;;
65751;SDS011;52486;51.098;13.770;2023-03-03T05:19:58;2.70;;;2.50;;
65751;SDS011;52486;51.098;13.770;2023-03-03T05:22:24;3.50;;;2.63;;
65751;SDS011;52486;51.098;13.770;2023-03-03T05:24:51;2.75;;;2.45;;
65751;SDS011;52486;51.098;13.770;2023-03-03T05:27:17;2.42;;;2.22;;
65751;SDS011;52486;51.098;13.770;2023-03-03T05:29:44;3.97;;;2.60;;
65751;SDS011;52486;51.098;13.770;2023-03-03T05:32:10;2.60;;;2.40;;
65751;SDS011;52486;51.098;13.770;2023-03-03T05:34:36;2.83;;;2.42;;
65751;SDS011;52486;51.098;13.770;2023-03-03T05:37:02;3.22;;;2.70;;
65751;SDS011;52486;51.098;13.770;2023-03-03T05:39:31;2.83;;;2.50;;
65751;SDS011;52486;51.098;13.770;2023-03-03T05:41:57;3.28;;;2.58;;
65751;SDS011;52486;51.098;13.770;2023-03-03T05:44:24;2.70;;;2.30;;
65751;SDS011;52486;51.098;13.770;2023-03-03T05:46:50;3.47;;;2.65;;
65751;SDS011;52486;51.098;13.770;2023-03-03T05:49:16;4.00;;;2.53;;
65751;SDS011;52486;51.098;13.770;2023-03-03T05:51:42;3.33;;;2.58;;
65751;SDS011;52486;51.098;13.770;2023-03-03T05:54:09;3.35;;;2.80;;
65751;SDS011;52486;51.098;13.770;2023-03-03T05:56:35;3.35;;;2.63;;
65751;SDS011;52486;51.098;13.770;2023-03-03T05:59:01;2.78;;;2.47;;
65751;SDS011;52486;51.098;13.770;2023-03-03T06:01:27;4.03;;;2.50;;
65751;SDS011;52486;51.098;13.770;2023-03-03T06:03:53;3.15;;;2.72;;
65751;SDS011;52486;51.098;13.770;2023-03-03T06:06:19;4.45;;;2.58;;
65751;SDS011;52486;51.098;13.770;2023-03-03T06:08:45;3.10;;;2.40;;
65751;SDS011;52486;51.098;13.770;2023-03-03T06:11:12;3.05;;;2.50;;
65751;SDS011;52486;51.098;13.770;2023-03-03T06:13:40;6.55;;;2.70;;
65751;SDS011;52486;51.098;13.770;2023-03-03T06:16:07;2.40;;;2.20;;
65751;SDS011;52486;51.098;13.770;2023-03-03T06:18:33;3.15;;;2.30;;
65751;SDS011;52486;51.098;13.770;2023-03-03T06:20:59;3.55;;;2.70;;
65751;SDS011;52486;51.098;13.770;2023-03-03T06:23:25;2.53;;;2.33;;
65751;SDS011;52486;51.098;13.770;2023-03-03T06:25:51;4.15;;;2.67;;
65751;SDS011;52486;51.098;13.770;2023-03-03T06:28:18;3.53;;;2.55;;
65751;SDS011;52486;51.098;13.770;2023-03-03T06:30:44;3.13;;;2.47;;
65751;SDS011;52486;51.098;13.770;2023-03-03T06:33:10;3.40;;;2.53;;
65751;SDS011;52486;51.098;13.770;2023-03-03T06:35:36;2.78;;;2.20;;
65751;SDS011;52486;51.098;13.770;2023-03-03T06:38:02;4.15;;;2.60;;
65751;SDS011;52486;51.098;13.770;2023-03-03T06:40:28;2.70;;;2.50;;
65751;SDS011;52486;51.098;13.770;2023-03-03T06:42:54;2.88;;;2.50;;
65751;SDS011;52486;51.098;13.770;2023-03-03T06:45:20;2.90;;;2.60;;
65751;SDS011;52486;51.098;13.770;2023-03-03T06:47:47;3.13;;;2.67;;
65751;SDS011;52486;51.098;13.770;2023-03-03T06:50:13;3.28;;;2.80;;
65751;SDS011;52486;51.098;13.770;2023-03-03T06:52:43;2.90;;;2.40;;
65751;SDS011;52486;51.098;13.770;2023-03-03T06:55:14;4.05;;;3.05;;
65751;SDS011;52486;51.098;13.770;2023-03-03T06:57:42;3.58;;;2.70;;
65751;SDS011;52486;51.098;13.770;2023-03-03T07:00:18;3.45;;;2.58;;
65751;SDS011;52486;51.098;13.770;2023-03-03T07:02:46;3.70;;;2.72;;
65751;SDS011;52486;51.098;13.770;2023-03-03T07:05:16;5.60;;;2.88;;
65751;SDS011;52486;51.098;13.770;2023-03-03T07:07:43;2.92;;;2.55;;
65751;SDS011;52486;51.098;13.770;2023-03-03T07:10:17;4.13;;;2.40;;
65751;SDS011;52486;51.098;13.770;2023-03-03T07:12:45;4.80;;;2.60;;
65751;SDS011;52486;51.098;13.770;2023-03-03T07:15:15;3.10;;;2.50;;
65751;SDS011;52486;51.098;13.770;2023-03-03T07:17:43;4.18;;;2.47;;
65751;SDS011;52486;51.098;13.770;2023-03-03T07:20:18;3.72;;;2.65;;
65751;SDS011;52486;51.098;13.770;2023-03-03T07:22:45;3.42;;;2.75;;
65751;SDS011;52486;51.098;13.770;2023-03-03T07:25:44;3.03;;;2.40;;
65751;SDS011;52486;51.098;13.770;2023-03-03T07:28:17;3.78;;;2.58;;
65751;SDS011;52486;51.098;13.770;2023-03-03T07:30:45;3.00;;;2.53;;
65751;SDS011;52486;51.098;13.770;2023-03-03T07:33:18;2.40;;;2.20;;
65751;SDS011;52486;51.098;13.770;2023-03-03T07:35:49;3.05;;;2.58;;
65751;SDS011;52486;51.098;13.770;2023-03-03T07:38:16;4.30;;;2.70;;
65751;SDS011;52486;51.098;13.770;2023-03-03T07:40:47;4.78;;;2.65;;
65751;SDS011;52486;51.098;13.770;2023-03-03T07:48:38;5.63;;;2.67;;
65751;SDS011;52486;51.098;13.770;2023-03-03T07:51:17;3.75;;;2.72;;
65751;SDS011;52486;51.098;13.770;2023-03-03T07:53:46;2.65;;;2.42;;
65751;SDS011;52486;51.098;13.770;2023-03-03T07:56:21;3.13;;;2.33;;
65751;SDS011;52486;51.098;13.770;2023-03-03T07:58:49;2.85;;;2.60;;
65751;SDS011;52486;51.098;13.770;2023-03-03T08:03:57;3.92;;;2.67;;
65751;SDS011;52486;51.098;13.770;2023-03-03T08:09:00;4.18;;;2.60;;
65751;SDS011;52486;51.098;13.770;2023-03-03T08:11:26;3.58;;;2.65;;
65751;SDS011;52486;51.098;13.770;2023-03-03T08:13:52;3.33;;;2.50;;
65751;SDS011;52486;51.098;13.770;2023-03-03T08:16:35;4.93;;;2.70;;
65751;SDS011;52486;51.098;13.770;2023-03-03T08:19:02;7.57;;;2.90;;
65751;SDS011;52486;51.098;13.770;2023-03-03T08:21:29;3.92;;;2.88;;
65751;SDS011;52486;51.098;13.770;2023-03-03T08:23:58;6.70;;;3.10;;
65751;SDS011;52486;51.098;13.770;2023-03-03T08:26:25;11.80;;;3.33;;
65751;SDS011;52486;51.098;13.770;2023-03-03T08:28:51;6.03;;;3.25;;
65751;SDS011;52486;51.098;13.770;2023-03-03T08:31:18;7.05;;;3.20;;
65751;SDS011;52486;51.098;13.770;2023-03-03T08:33:44;10.10;;;3.35;;
65751;SDS011;52486;51.098;13.770;2023-03-03T08:36:10;5.80;;;3.33;;
65751;SDS011;52486;51.098;13.770;2023-03-03T08:38:36;4.13;;;3.38;;
65751;SDS011;52486;51.098;13.770;2023-03-03T08:41:03;6.28;;;3.00;;
65751;SDS011;52486;51.098;13.770;2023-03-03T08:43:30;6.63;;;3.45;;
65751;SDS011;52486;51.098;13.770;2023-03-03T08:45:57;5.80;;;3.20;;
65751;SDS011;52486;51.098;13.770;2023-03-03T08:48:24;9.48;;;3.20;;
65751;SDS011;52486;51.098;13.770;2023-03-03T08:50:51;6.93;;;3.47;;
65751;SDS011;52486;51.098;13.770;2023-03-03T08:53:17;6.47;;;3.38;;
65751;SDS011;52486;51.098;13.770;2023-03-03T08:55:43;7.65;;;3.20;;
65751;SDS011;52486;51.098;13.770;2023-03-03T08:58:10;7.00;;;3.15;;
65751;SDS011;52486;51.098;13.770;2023-03-03T09:00:36;5.88;;;3.42;;
65751;SDS011;52486;51.098;13.770;2023-03-03T09:03:02;8.45;;;3.03;;
65751;SDS011;52486;51.098;13.770;2023-03-03T09:05:31;6.38;;;2.85;;
65751;SDS011;52486;51.098;13.770;2023-03-03T09:07:57;6.95;;;3.10;;
65751;SDS011;52486;51.098;13.770;2023-03-03T09:10:24;6.65;;;2.95;;
65751;SDS011;52486;51.098;13.770;2023-03-03T09:12:59;11.07;;;3.25;;
65751;SDS011;52486;51.098;13.770;2023-03-03T09:15:28;5.65;;;3.05;;
65751;SDS011;52486;51.098;13.770;2023-03-03T09:25:44;7.05;;;3.35;;
65751;SDS011;52486;51.098;13.770;2023-03-03T09:28:27;11.23;;;3.38;;
65751;SDS011;52486;51.098;13.770;2023-03-03T09:30:55;6.00;;;3.05;;
65751;SDS011;52486;51.098;13.770;2023-03-03T09:35:53;13.05;;;3.20;;
65751;SDS011;52486;51.098;13.770;2023-03-03T09:49:05;3.60;;;2.75;;
65751;SDS011;52486;51.098;13.770;2023-03-03T09:59:35;6.95;;;3.03;;
65751;SDS011;52486;51.098;13.770;2023-03-03T10:02:37;8.77;;;2.95;;
65751;SDS011;52486;51.098;13.770;2023-03-03T10:11:33;9.77;;;2.60;;
65751;SDS011;52486;51.098;13.770;2023-03-03T10:13:38;4.20;;;2.28;;
65751;SDS011;52486;51.098;13.770;2023-03-03T10:18:41;6.10;;;2.65;;
65751;SDS011;52486;51.098;13.770;2023-03-03T10:21:15;5.85;;;2.30;;
65751;SDS011;52486;51.098;13.770;2023-03-03T10:23:55;9.52;;;3.05;;
65751;SDS011;52486;51.098;13.770;2023-03-03T10:26:28;4.35;;;2.22;;
65751;SDS011;52486;51.098;13.770;2023-03-03T10:34:26;7.40;;;;;
65751;SDS011;52486;51.098;13.770;2023-03-03T10:47:49;6.18;;;2.08;;
65751;SDS011;52486;51.098;13.770;2023-03-03T10:49:55;8.20;;;2.05;;
65751;SDS011;52486;51.098;13.770;2023-03-03T10:57:47;8.07;;;2.75;;
65751;SDS011;52486;51.098;13.770;2023-03-03T11:00:23;7.20;;;2.53;;
65751;SDS011;52486;51.098;13.770;2023-03-03T11:05:31;3.67;;;1.95;;
65751;SDS011;52486;51.098;13.770;2023-03-03T11:08:06;5.25;;;2.40;;
65751;SDS011;52486;51.098;13.770;2023-03-03T11:10:40;5.53;;;2.50;;
65751;SDS011;52486;51.098;13.770;2023-03-03T11:13:37;5.93;;;2.08;;
65751;SDS011;52486;51.098;13.770;2023-03-03T11:33:51;5.43;;;2.15;;
65751;SDS011;52486;51.098;13.770;2023-03-03T11:36:22;9.98;;;1.85;;
65751;SDS011;52486;51.098;13.770;2023-03-03T11:43:48;7.63;;;2.10;;
65751;SDS011;52486;51.098;13.770;2023-03-03T11:46:22;5.03;;;2.00;;
65751;SDS011;52486;51.098;13.770;2023-03-03T11:56:18;2.28;;;1.90;;
65751;SDS011;52486;51.098;13.770;2023-03-03T11:58:47;3.33;;;1.63;;
65751;SDS011;52486;51.098;13.770;2023-03-03T12:01:35;3.90;;;1.65;;
65751;SDS011;52486;51.098;13.770;2023-03-03T12:07:12;8.60;;;1.80;;
65751;SDS011;52486;51.098;13.770;2023-03-03T12:17:16;2.40;;;1.63;;
65751;SDS011;52486;51.098;13.770;2023-03-03T12:19:56;2.78;;;1.80;;
65751;SDS011;52486;51.098;13.770;2023-03-03T12:22:34;5.40;;;1.70;;
65751;SDS011;52486;51.098;13.770;2023-03-03T12:27:51;5.70;;;2.05;;
65751;SDS011;52486;51.098;13.770;2023-03-03T12:35:12;2.78;;;1.88;;
65751;SDS011;52486;51.098;13.770;2023-03-03T12:40:16;1.70;;;1.60;;
65751;SDS011;52486;51.098;13.770;2023-03-03T12:45:45;2.55;;;2.08;;
65751;SDS011;52486;51.098;13.770;2023-03-03T12:48:18;2.60;;;2.40;;
65751;SDS011;52486;51.098;13.770;2023-03-03T12:53:17;3.38;;;2.20;;
65751;SDS011;52486;51.098;13.770;2023-03-03T12:55:52;1.85;;;1.75;;
65751;SDS011;52486;51.098;13.770;2023-03-03T13:13:40;2.90;;;2.40;;
65751;SDS011;52486;51.098;13.770;2023-03-03T13:24:06;3.70;;;2.22;;
65751;SDS011;52486;51.098;13.770;2023-03-03T13:29:40;2.08;;;1.83;;
65751;SDS011;52486;51.098;13.770;2023-03-03T13:35:15;1.80;;;1.70;;
65751;SDS011;52486;51.098;13.770;2023-03-03T13:37:44;2.22;;;2.03;;
65751;SDS011;52486;51.098;13.770;2023-03-03T13:42:39;2.58;;;1.70;;
65751;SDS011;52486;51.098;13.770;2023-03-03T13:45:12;3.15;;;2.10;;
65751;SDS011;52486;51.098;13.770;2023-03-03T13:47:49;2.25;;;2.05;;
65751;SDS011;52486;51.098;13.770;2023-03-03T13:50:31;2.42;;;2.22;;
65751;SDS011;52486;51.098;13.770;2023-03-03T13:55:28;2.60;;;2.20;;
65751;SDS011;52486;51.098;13.770;2023-03-03T14:00:25;5.10;;;2.10;;
65751;SDS011;52486;51.098;13.770;2023-03-03T14:03:10;3.47;;;2.10;;
65751;SDS011;52486;51.098;13.770;2023-03-03T14:19:08;2.13;;;1.92;;
65751;SDS011;52486;51.098;13.770;2023-03-03T14:21:48;4.05;;;2.30;;
65751;SDS011;52486;51.098;13.770;2023-03-03T14:24:17;5.03;;;2.30;;
65751;SDS011;52486;51.098;13.770;2023-03-03T14:26:50;3.30;;;1.98;;
65751;SDS011;52486;51.098;13.770;2023-03-03T14:31:46;2.47;;;2.00;;
65751;SDS011;52486;51.098;13.770;2023-03-03T14:36:50;2.35;;;1.95;;
65751;SDS011;52486;51.098;13.770;2023-03-03T14:41:48;3.00;;;2.15;;
65751;SDS011;52486;51.098;13.770;2023-03-03T14:47:05;2.25;;;1.80;;
65751;SDS011;52486;51.098;13.770;2023-03-03T14:49:37;4.55;;;1.77;;
65751;SDS011;52486;51.098;13.770;2023-03-03T14:54:43;4.60;;;1.80;;
65751;SDS011;52486;51.098;13.770;2023-03-03T14:57:16;2.45;;;1.88;;
65751;SDS011;52486;51.098;13.770;2023-03-03T15:04:47;6.85;;;2.30;;
65751;SDS011;52486;51.098;13.770;2023-03-03T15:09:57;3.67;;;2.03;;
65751;SDS011;52486;51.098;13.770;2023-03-03T15:12:25;3.42;;;2.55;;
65751;SDS011;52486;51.098;13.770;2023-03-03T15:22:50;22.30;;;2.30;;
65751;SDS011;52486;51.098;13.770;2023-03-03T15:25:41;3.80;;;2.20;;
65751;SDS011;52486;51.098;13.770;2023-03-03T15:28:16;3.30;;;2.10;;
65751;SDS011;52486;51.098;13.770;2023-03-03T15:30:50;3.90;;;2.15;;
65751;SDS011;52486;51.098;13.770;2023-03-03T15:33:24;3.92;;;2.40;;
65751;SDS011;52486;51.098;13.770;2023-03-03T15:38:42;3.58;;;2.08;;
65751;SDS011;52486;51.098;13.770;2023-03-03T15:43:42;2.53;;;2.30;;
65751;SDS011;52486;51.098;13.770;2023-03-03T15:46:16;2.95;;;1.90;;
65751;SDS011;52486;51.098;13.770;2023-03-03T15:54:08;5.35;;;2.03;;
65751;SDS011;52486;51.098;13.770;2023-03-03T15:56:48;3.67;;;2.15;;
65751;SDS011;52486;51.098;13.770;2023-03-03T16:01:48;3.28;;;1.88;;
65751;SDS011;52486;51.098;13.770;2023-03-03T16:04:18;4.07;;;2.20;;
65751;SDS011;52486;51.098;13.770;2023-03-03T16:09:18;2.67;;;2.35;;
65751;SDS011;52486;51.098;13.770;2023-03-03T16:11:53;3.17;;;2.83;;
65751;SDS011;52486;51.098;13.770;2023-03-03T16:17:15;3.10;;;2.80;;
65751;SDS011;52486;51.098;13.770;2023-03-03T16:27:42;3.67;;;3.35;;
65751;SDS011;52486;51.098;13.770;2023-03-03T16:30:16;5.82;;;3.80;;
65751;SDS011;52486;51.098;13.770;2023-03-03T16:35:32;3.50;;;2.65;;
65751;SDS011;52486;51.098;13.770;2023-03-03T16:38:05;4.90;;;3.00;;
65751;SDS011;52486;51.098;13.770;2023-03-03T16:45:37;3.10;;;2.75;;
65751;SDS011;52486;51.098;13.770;2023-03-03T16:48:25;6.82;;;3.20;;
65751;SDS011;52486;51.098;13.770;2023-03-03T16:53:42;3.67;;;2.75;;
65751;SDS011;52486;51.098;13.770;2023-03-03T17:22:03;2.45;;;2.25;;
65751;SDS011;52486;51.098;13.770;2023-03-03T17:24:33;2.50;;;2.30;;
65751;SDS011;52486;51.098;13.770;2023-03-03T17:27:11;5.68;;;2.78;;
65751;SDS011;52486;51.098;13.770;2023-03-03T17:39:45;4.85;;;2.30;;
65751;SDS011;52486;51.098;13.770;2023-03-03T17:44:59;5.05;;;2.53;;
65751;SDS011;52486;51.098;13.770;2023-03-03T17:47:46;2.67;;;2.47;;
65751;SDS011;52486;51.098;13.770;2023-03-03T17:52:46;2.63;;;2.40;;
65751;SDS011;52486;51.098;13.770;2023-03-03T17:55:21;3.00;;;2.47;;
65751;SDS011;52486;51.098;13.770;2023-03-03T18:00:24;2.25;;;2.05;;
65751;SDS011;52486;51.098;13.770;2023-03-03T18:03:14;2.97;;;2.50;;
65751;SDS011;52486;51.098;13.770;2023-03-03T18:11:13;2.95;;;2.05;;
65751;SDS011;52486;51.098;13.770;2023-03-03T18:18:46;2.58;;;1.88;;
65751;SDS011;52486;51.098;13.770;2023-03-03T18:21:15;2.97;;;2.33;;
65751;SDS011;52486;51.098;13.770;2023-03-03T18:23:42;3.20;;;2.20;;
65751;SDS011;52486;51.098;13.770;2023-03-03T18:26:29;2.25;;;2.05;;
65751;SDS011;52486;51.098;13.770;2023-03-03T18:29:09;2.60;;;2.38;;
65751;SDS011;52486;51.098;13.770;2023-03-03T18:32:18;3.10;;;2.35;;
65751;SDS011;52486;51.098;13.770;2023-03-03T18:34:26;2.40;;;1.90;;
65751;SDS011;52486;51.098;13.770;2023-03-03T18:37:00;2.47;;;2.25;;
65751;SDS011;52486;51.098;13.770;2023-03-03T18:39:36;4.75;;;2.33;;
65751;SDS011;52486;51.098;13.770;2023-03-03T18:44:37;2.65;;;2.42;;
65751;SDS011;52486;51.098;13.770;2023-03-03T18:47:03;5.63;;;2.55;;
65751;SDS011;52486;51.098;13.770;2023-03-03T18:52:19;2.72;;;2.42;;
65751;SDS011;52486;51.098;13.770;2023-03-03T18:54:58;3.40;;;2.38;;
65751;SDS011;52486;51.098;13.770;2023-03-03T18:57:26;2.50;;;2.30;;
65751;SDS011;52486;51.098;13.770;2023-03-03T18:59:53;2.38;;;2.17;;
65751;SDS011;52486;51.098;13.770;2023-03-03T19:02:27;3.72;;;2.30;;
65751;SDS011;52486;51.098;13.770;2023-03-03T19:12:47;3.05;;;2.50;;
65751;SDS011;52486;51.098;13.770;2023-03-03T19:20:24;2.95;;;2.67;;
65751;SDS011;52486;51.098;13.770;2023-03-03T19:22:52;3.42;;;2.65;;
65751;SDS011;52486;51.098;13.770;2023-03-03T19:25:27;4.00;;;3.38;;
65751;SDS011;52486;51.098;13.770;2023-03-03T19:31:14;3.55;;;3.25;;
65751;SDS011;52486;51.098;13.770;2023-03-03T19:38:49;2.75;;;2.45;;
65751;SDS011;52486;51.098;13.770;2023-03-03T19:41:19;2.95;;;2.65;;
65751;SDS011;52486;51.098;13.770;2023-03-03T19:51:33;5.53;;;2.45;;
65751;SDS011;52486;51.098;13.770;2023-03-03T19:56:40;3.72;;;3.00;;
65751;SDS011;52486;51.098;13.770;2023-03-03T19:59:29;3.80;;;2.53;;
65751;SDS011;52486;51.098;13.770;2023-03-03T20:02:09;2.92;;;2.55;;
65751;SDS011;52486;51.098;13.770;2023-03-03T20:07:24;4.65;;;2.97;;
65751;SDS011;52486;51.098;13.770;2023-03-03T20:10:03;3.35;;;2.75;;
65751;SDS011;52486;51.098;13.770;2023-03-03T20:15:11;2.90;;;2.70;;
65751;SDS011;52486;51.098;13.770;2023-03-03T20:20:18;4.30;;;2.97;;
65751;SDS011;52486;51.098;13.770;2023-03-03T20:25:26;3.00;;;2.72;;
65751;SDS011;52486;51.098;13.770;2023-03-03T20:38:17;2.65;;;2.45;;
65751;SDS011;52486;51.098;13.770;2023-03-03T20:40:58;2.72;;;2.38;;
65751;SDS011;52486;51.098;13.770;2023-03-03T20:54:05;2.65;;;2.40;;
65751;SDS011;52486;51.098;13.770;2023-03-03T20:56:45;3.53;;;2.72;;
65751;SDS011;52486;51.098;13.770;2023-03-03T21:04:24;4.00;;;2.53;;
65751;SDS011;52486;51.098;13.770;2023-03-03T21:06:51;3.20;;;2.38;;
65751;SDS011;52486;51.098;13.770;2023-03-03T21:09:22;2.40;;;2.20;;
65751;SDS011;52486;51.098;13.770;2023-03-03T21:11:48;3.38;;;2.33;;
65751;SDS011;52486;51.098;13.770;2023-03-03T21:14:22;3.75;;;2.40;;
65751;SDS011;52486;51.098;13.770;2023-03-03T21:16:48;3.13;;;2.53;;
65751;SDS011;52486;51.098;13.770;2023-03-03T21:19:22;2.72;;;2.30;;
65751;SDS011;52486;51.098;13.770;2023-03-03T21:21:49;2.80;;;2.50;;
65751;SDS011;52486;51.098;13.770;2023-03-03T21:24:16;2.65;;;2.22;;